Time;durP1;ratioP1;P1;durP2;ratioP2;P2;SDS_P1;SDS_P2;PMS_P1;PMS_P2;Temp;Humidity;BMP_temperature;BMP_pressure;BME280_temperature;BME280_humidity;BME280_pressure;Samples;Min_cycle;Max_cycle;Signal;HPM_P1;HPM_P2
2024/03/13 00:00:15;;;;;;;3.83;1.52;;;26.80;49.10;;;;;;5103324;28;20068;-55
2024/03/13 00:02:43;;;;;;;4.43;1.40;;;26.70;49.30;;;;;;5103710;28;20514;-52
2024/03/13 00:05:10;;;;;;;13.27;1.83;;;26.60;49.70;;;;;;5113382;28;20091;-54
2024/03/13 00:07:37;;;;;;;10.30;1.63;;;26.60;50.20;;;;;;5111936;28;20068;-52
2024/03/13 00:10:06;;;;;;;6.32;1.83;;;26.50;49.70;;;;;;5112271;28;20100;-52
2024/03/13 00:12:45;;;;;;;9.48;1.67;;;26.40;49.90;;;;;;5116073;28;20518;-56
2024/03/13 00:15:11;;;;;;;4.53;1.40;;;26.20;50.10;;;;;;5115824;28;20072;-50
2024/03/13 00:17:38;;;;;;;4.20;1.60;;;26.10;50.60;;;;;;5113162;28;20158;-50
2024/03/13 00:20:04;;;;;;;5.35;1.60;;;26.00;51.00;;;;;;5115791;28;20083;-52
2024/03/13 00:22:31;;;;;;;7.47;1.63;;;26.10;51.10;;;;;;5110147;27;20084;-51
2024/03/13 00:24:58;;;;;;;6.50;1.50;;;25.90;51.00;;;;;;5109455;28;20468;-50
2024/03/13 00:27:25;;;;;;;9.13;1.85;;;26.00;51.10;;;;;;5105554;28;20068;-53
2024/03/13 00:29:52;;;;;;;7.40;2.00;;;25.80;51.20;;;;;;5099502;28;20162;-50
2024/03/13 00:32:23;;;;;;;7.40;1.70;;;25.80;51.30;;;;;;5110464;28;20574;-49
2024/03/13 00:34:50;;;;;;;5.55;1.85;;;25.80;51.30;;;;;;5099028;28;20145;-54
2024/03/13 00:37:17;;;;;;;4.85;1.42;;;25.60;51.50;;;;;;5103452;28;20064;-54
2024/03/13 00:39:44;;;;;;;8.18;1.42;;;25.50;52.00;;;;;;5104433;28;20076;-50
2024/03/13 00:42:13;;;;;;;3.53;1.30;;;25.50;52.00;;;;;;5107913;28;20072;-53
2024/03/13 00:44:41;;;;;;;7.53;1.42;;;25.40;52.10;;;;;;5110382;28;20067;-49
2024/03/13 00:47:08;;;;;;;6.72;1.55;;;25.30;52.60;;;;;;5106496;28;20130;-50
2024/03/13 00:49:35;;;;;;;7.35;1.90;;;25.20;52.70;;;;;;5110168;28;20444;-51
2024/03/13 00:52:02;;;;;;;5.78;1.20;;;25.20;52.90;;;;;;5107530;28;20110;-58
2024/03/13 00:54:30;;;;;;;10.45;1.55;;;25.20;53.10;;;;;;5099293;28;20155;-53
2024/03/13 00:56:57;;;;;;;6.40;1.60;;;25.00;53.60;;;;;;5092150;28;20092;-53
2024/03/13 00:59:27;;;;;;;5.43;1.75;;;24.90;54.20;;;;;;5095137;28;20080;-54
2024/03/13 01:01:57;;;;;;;12.10;2.47;;;24.90;54.30;;;;;;5112609;27;20076;-53
2024/03/13 01:04:25;;;;;;;12.45;2.03;;;24.80;54.10;;;;;;5115185;28;20079;-52
2024/03/13 01:06:52;;;;;;;24.90;2.10;;;24.70;54.40;;;;;;5112423;28;20076;-52
2024/03/13 01:09:23;;;;;;;6.47;2.10;;;24.70;54.30;;;;;;5105945;28;20104;-51
2024/03/13 01:11:52;;;;;;;6.47;1.67;;;24.70;54.50;;;;;;5093993;28;20081;-56
2024/03/13 01:14:21;;;;;;;8.60;1.92;;;24.30;55.70;;;;;;5118088;27;20533;-49
2024/03/13 01:16:53;;;;;;;8.70;1.90;;;24.00;58.10;;;;;;5106929;28;20072;-49
2024/03/13 01:19:23;;;;;;;11.40;2.40;;;23.90;57.20;;;;;;5114283;28;20107;-49
2024/03/13 01:21:54;;;;;;;10.57;3.08;;;23.80;57.50;;;;;;5110364;28;20076;-49
2024/03/13 01:24:21;;;;;;;14.55;2.50;;;23.70;57.50;;;;;;5112559;28;20174;-49
2024/03/13 01:26:49;;;;;;;12.18;4.78;;;23.60;57.70;;;;;;5112189;28;20068;-51
2024/03/13 01:29:16;;;;;;;16.48;4.13;;;23.50;58.40;;;;;;5113886;27;20108;-51
2024/03/13 01:31:43;;;;;;;6.80;3.20;;;23.40;58.40;;;;;;5108026;28;20506;-50
2024/03/13 01:34:12;;;;;;;5.00;1.70;;;23.40;57.90;;;;;;5109451;28;20066;-49
2024/03/13 01:39:26;;;;;;;6.60;1.88;;;23.30;57.60;;;;;;5108495;28;20087;-49
2024/03/13 01:55:46;;;;;;;16.05;2.35;;;22.90;59.20;;;;;;5113933;28;20597;-54
2024/03/13 01:58:20;;;;;;;6.03;2.45;;;22.80;58.90;;;;;;5115826;27;20076;-53
2024/03/13 02:03:32;;;;;;;8.98;2.00;;;22.60;60.80;;;;;;5109762;28;20102;-51
2024/03/13 02:06:04;;;;;;;11.27;2.45;;;22.50;60.90;;;;;;5106564;28;20468;-54
2024/03/13 02:08:30;;;;;;;7.63;2.30;;;22.40;61.60;;;;;;5091866;28;20114;-50
2024/03/13 02:10:58;;;;;;;7.43;2.35;;;22.40;59.90;;;;;;5109753;27;20188;-50
2024/03/13 02:13:25;;;;;;;7.03;2.38;;;22.40;60.60;;;;;;5111126;28;20125;-54
2024/03/13 02:15:53;;;;;;;11.60;2.20;;;22.30;60.10;;;;;;5109229;28;20113;-51
2024/03/13 02:18:27;;;;;;;7.32;2.05;;;22.30;60.20;;;;;;5112103;28;20071;-50
2024/03/13 02:20:58;;;;;;;26.13;2.38;;;22.20;61.20;;;;;;5111137;28;20146;-52
2024/03/13 02:23:31;;;;;;;6.40;1.98;;;22.10;60.10;;;;;;5112063;28;20151;-50
2024/03/13 02:25:58;;;;;;;10.43;2.25;;;22.10;60.20;;;;;;5098370;28;20115;-52
2024/03/13 02:28:36;;;;;;;8.95;2.20;;;22.00;61.40;;;;;;5090283;28;20080;-50
2024/03/13 02:31:06;;;;;;;8.95;2.47;;;22.00;60.50;;;;;;5092806;28;20522;-49
2024/03/13 02:33:34;;;;;;;7.03;2.67;;;22.00;61.20;;;;;;5102837;28;20075;-50
2024/03/13 02:36:01;;;;;;;12.65;3.40;;;21.90;61.30;;;;;;5111040;28;20076;-49
2024/03/13 02:38:28;;;;;;;10.63;3.90;;;21.80;60.70;;;;;;5111553;28;20446;-50
2024/03/13 02:40:55;;;;;;;12.70;3.25;;;21.80;61.40;;;;;;5113102;28;20110;-54
2024/03/13 02:43:22;;;;;;;13.00;2.80;;;21.80;61.10;;;;;;5103199;28;20427;-51
2024/03/13 02:45:49;;;;;;;14.00;3.90;;;21.70;61.00;;;;;;5111660;28;20075;-49
2024/03/13 02:48:16;;;;;;;12.80;4.90;;;21.70;61.30;;;;;;5111545;28;20079;-52
2024/03/13 02:50:43;;;;;;;11.88;4.93;;;21.60;61.50;;;;;;5112564;28;20171;-53
2024/03/13 02:53:10;;;;;;;14.45;3.45;;;21.60;61.90;;;;;;5112713;28;20067;-50
2024/03/13 02:55:37;;;;;;;13.63;3.15;;;21.50;62.00;;;;;;5112667;28;20147;-54
2024/03/13 02:58:04;;;;;;;8.88;3.00;;;21.40;62.10;;;;;;5106275;28;20393;-54
2024/03/13 03:00:31;;;;;;;11.80;3.25;;;21.50;62.20;;;;;;5091072;28;20133;-53
2024/03/13 03:02:58;;;;;;;10.88;4.00;;;21.40;62.20;;;;;;5091953;28;20519;-51
2024/03/13 03:05:24;;;;;;;12.00;3.35;;;21.40;62.00;;;;;;5108597;28;20081;-53
2024/03/13 03:07:51;;;;;;;18.35;4.00;;;21.30;62.30;;;;;;5109232;28;20075;-51
2024/03/13 03:10:18;;;;;;;11.38;4.05;;;21.30;62.40;;;;;;5110949;28;20158;-50
2024/03/13 03:12:45;;;;;;;14.68;2.85;;;21.30;62.40;;;;;;5105038;28;20141;-51
2024/03/13 03:15:11;;;;;;;23.13;4.38;;;21.30;61.90;;;;;;5097302;28;20064;-50
2024/03/13 03:17:38;;;;;;;7.90;2.55;;;21.30;62.40;;;;;;5109466;27;20068;-53
2024/03/13 03:20:06;;;;;;;16.50;3.15;;;21.20;62.10;;;;;;5108688;28;20095;-51
2024/03/13 03:22:32;;;;;;;13.23;3.08;;;21.20;62.10;;;;;;5111996;28;20072;-52
2024/03/13 03:24:59;;;;;;;13.82;3.15;;;21.10;62.30;;;;;;5110806;28;20175;-52
2024/03/13 03:27:26;;;;;;;9.95;2.95;;;21.10;62.20;;;;;;5110139;28;20084;-49
2024/03/13 03:29:52;;;;;;;11.98;3.22;;;21.10;62.30;;;;;;5111840;28;20094;-48
2024/03/13 03:32:19;;;;;;;14.32;3.53;;;21.10;62.60;;;;;;5101946;28;20108;-50
2024/03/13 03:34:46;;;;;;;15.25;3.45;;;21.10;62.60;;;;;;5091680;28;20092;-51
2024/03/13 03:37:16;;;;;;;19.08;4.30;;;21.00;62.70;;;;;;5098225;28;20076;-51
2024/03/13 03:39:43;;;;;;;15.90;4.60;;;20.90;63.00;;;;;;5118182;28;20072;-53
2024/03/13 03:42:09;;;;;;;22.48;3.08;;;20.90;63.20;;;;;;5111223;28;20104;-49
2024/03/13 03:44:36;;;;;;;14.77;3.28;;;20.80;63.20;;;;;;5121993;28;20072;-53
2024/03/13 03:47:03;;;;;;;9.27;3.28;;;20.80;63.50;;;;;;5117266;28;20458;-49
2024/03/13 03:49:30;;;;;;;16.92;4.13;;;20.70;63.60;;;;;;5123627;28;20110;-53
2024/03/13 03:51:56;;;;;;;12.45;3.25;;;20.70;63.80;;;;;;5114386;27;20072;-54
2024/03/13 03:54:22;;;;;;;17.38;7.63;;;20.70;63.90;;;;;;5112200;28;20064;-52
2024/03/13 03:56:50;;;;;;;18.00;3.67;;;20.60;64.20;;;;;;5112238;28;20147;-52
2024/03/13 03:59:17;;;;;;;11.77;3.22;;;20.50;64.10;;;;;;5110268;28;20155;-49
2024/03/13 04:01:44;;;;;;;13.95;3.17;;;20.50;64.30;;;;;;5108106;28;20100;-49
2024/03/13 04:04:13;;;;;;;15.32;3.65;;;20.50;64.50;;;;;;5111756;28;20105;-51
2024/03/13 04:06:41;;;;;;;12.52;3.35;;;20.50;64.60;;;;;;5110093;28;20084;-50
2024/03/13 04:09:17;;;;;;;15.18;4.03;;;20.40;64.80;;;;;;5111694;27;20187;-61
2024/03/13 04:11:44;;;;;;;12.05;5.45;;;20.40;65.00;;;;;;5111084;28;20125;-53
2024/03/13 04:14:11;;;;;;;15.93;3.72;;;20.30;65.10;;;;;;5112864;28;20446;-49
2024/03/13 04:16:45;;;;;;;14.30;3.40;;;20.30;65.30;;;;;;5106745;28;20118;-50
2024/03/13 04:19:11;;;;;;;9.80;3.30;;;20.30;65.40;;;;;;5111001;27;20545;-52
2024/03/13 04:21:38;;;;;;;28.60;4.82;;;20.20;65.30;;;;;;5110932;27;20068;-53
2024/03/13 04:24:08;;;;;;;16.52;3.42;;;20.20;65.40;;;;;;5115602;27;20080;-56
2024/03/13 04:26:41;;;;;;;14.25;4.28;;;20.20;65.60;;;;;;5116875;27;20167;-50
2024/03/13 04:29:10;;;;;;;17.05;4.15;;;20.20;65.40;;;;;;5112801;28;20107;-49
2024/03/13 04:31:39;;;;;;;14.98;3.95;;;20.10;65.80;;;;;;5113458;28;20068;-56
2024/03/13 04:34:07;;;;;;;13.88;3.50;;;20.10;65.90;;;;;;5131211;27;21220;-52
2024/03/13 04:36:40;;;;;;;11.80;3.60;;;20.10;65.90;;;;;;5135973;27;20166;-51
2024/03/13 04:39:07;;;;;;;16.75;3.17;;;20.10;66.20;;;;;;5126486;27;20072;-51
2024/03/13 04:41:39;;;;;;;19.48;3.42;;;20.00;65.80;;;;;;5093181;28;20167;-53
2024/03/13 04:44:09;;;;;;;10.75;2.88;;;20.00;66.00;;;;;;5108036;28;20068;-53
2024/03/13 04:46:36;;;;;;;11.48;2.90;;;20.00;66.00;;;;;;5115576;28;20064;-49
2024/03/13 04:49:08;;;;;;;8.18;2.20;;;19.90;66.10;;;;;;5116283;28;20088;-52
2024/03/13 04:51:35;;;;;;;8.13;2.38;;;19.90;66.30;;;;;;5123476;27;20079;-53
2024/03/13 04:54:01;;;;;;;7.93;2.40;;;19.90;66.20;;;;;;5121187;27;20086;-55
2024/03/13 04:56:27;;;;;;;8.85;2.85;;;19.80;66.60;;;;;;5129914;27;20060;-53
2024/03/13 04:58:54;;;;;;;14.98;2.97;;;19.90;66.60;;;;;;5120240;27;20537;-49
2024/03/13 05:01:20;;;;;;;13.85;3.50;;;19.80;66.60;;;;;;5125233;27;20087;-51
2024/03/13 05:03:47;;;;;;;13.95;3.15;;;19.80;66.40;;;;;;5111487;27;20525;-52
2024/03/13 05:06:13;;;;;;;10.98;2.70;;;19.80;66.70;;;;;;5119573;27;20489;-52
2024/03/13 05:08:40;;;;;;;11.90;2.92;;;19.80;66.70;;;;;;5117399;27;20459;-52
2024/03/13 05:11:10;;;;;;;9.02;2.88;;;19.70;67.10;;;;;;5110584;27;20217;-49
2024/03/13 05:13:38;;;;;;;9.07;2.53;;;19.80;67.00;;;;;;5112261;27;20079;-49
2024/03/13 05:16:05;;;;;;;9.10;2.40;;;19.70;67.00;;;;;;5104952;27;21079;-50
2024/03/13 05:18:31;;;;;;;12.45;2.88;;;19.70;67.30;;;;;;5105151;28;20075;-61
2024/03/13 05:20:58;;;;;;;11.77;2.63;;;19.70;67.50;;;;;;5124350;27;20072;-67
2024/03/13 05:23:25;;;;;;;11.60;2.92;;;19.80;67.40;;;;;;5127659;27;20080;-68
2024/03/13 05:25:52;;;;;;;10.60;2.30;;;20.40;67.00;;;;;;5112151;27;20107;-68
2024/03/13 05:28:21;;;;;;;7.75;3.13;;;20.80;64.80;;;;;;5111332;27;20079;-69
2024/03/13 05:30:48;;;;;;;11.43;3.38;;;20.80;64.60;;;;;;5112072;28;20118;-69
2024/03/13 05:33:15;;;;;;;7.90;2.33;;;20.80;64.60;;;;;;5100154;28;20432;-68
2024/03/13 05:35:41;;;;;;;16.48;2.88;;;20.70;64.50;;;;;;5118773;27;20069;-68
2024/03/13 05:38:08;;;;;;;13.52;2.50;;;20.50;65.40;;;;;;5096007;28;20143;-66
2024/03/13 05:40:35;;;;;;;23.42;2.70;;;20.70;65.10;;;;;;5115948;27;20076;-68
2024/03/13 05:43:01;;;;;;;12.13;2.80;;;20.40;65.90;;;;;;5101925;27;20096;-66
2024/03/13 05:45:28;;;;;;;10.43;2.85;;;20.30;66.40;;;;;;5108600;27;20076;-62
2024/03/13 05:47:55;;;;;;;15.82;3.22;;;20.10;66.70;;;;;;5109832;27;20088;-64
2024/03/13 05:50:22;;;;;;;14.32;2.80;;;19.90;67.60;;;;;;5114066;27;20105;-64
2024/03/13 05:52:49;;;;;;;15.90;3.22;;;19.70;68.30;;;;;;5115934;27;20063;-64
2024/03/13 05:55:16;;;;;;;13.38;3.30;;;19.70;68.90;;;;;;5105663;27;20083;-63
2024/03/13 05:57:43;;;;;;;11.15;2.38;;;19.90;68.60;;;;;;5113320;27;20090;-64
2024/03/13 06:00:12;;;;;;;11.32;3.05;;;20.00;68.10;;;;;;5107822;27;20106;-64
2024/03/13 06:02:42;;;;;;;11.55;3.15;;;20.00;67.70;;;;;;5110074;27;20076;-65
2024/03/13 06:05:11;;;;;;;9.98;2.67;;;20.00;67.70;;;;;;5104604;27;20114;-63
2024/03/13 06:07:38;;;;;;;11.63;2.88;;;19.90;67.60;;;;;;5105999;27;20111;-65
2024/03/13 06:10:11;;;;;;;8.35;2.67;;;19.80;68.20;;;;;;5107694;27;20240;-64
2024/03/13 06:12:38;;;;;;;18.67;3.00;;;19.60;68.80;;;;;;5118613;27;20148;-65
2024/03/13 06:15:14;;;;;;;9.73;2.88;;;19.50;69.10;;;;;;5113075;27;20448;-66
2024/03/13 06:17:41;;;;;;;12.88;3.20;;;19.20;69.80;;;;;;5107558;27;20071;-62
2024/03/13 06:20:13;;;;;;;16.65;3.40;;;19.00;70.50;;;;;;5107214;27;20125;-64
2024/03/13 06:22:43;;;;;;;9.80;3.10;;;18.90;70.70;;;;;;5108234;27;20072;-62
2024/03/13 06:25:09;;;;;;;11.50;2.70;;;18.80;71.20;;;;;;5107084;27;20107;-63
2024/03/13 06:27:37;;;;;;;27.15;16.25;;;18.90;71.00;;;;;;5107711;28;20568;-64
2024/03/13 06:30:05;;;;;;;11.13;2.50;;;18.90;71.20;;;;;;5124802;27;20183;-62
2024/03/13 06:32:32;;;;;;;17.45;3.75;;;18.80;71.50;;;;;;5102439;27;20117;-71
2024/03/13 06:35:00;;;;;;;10.32;2.80;;;18.70;71.40;;;;;;5108853;27;20126;-63
2024/03/13 06:37:28;;;;;;;13.88;3.05;;;18.70;71.90;;;;;;5118513;27;20077;-62
2024/03/13 06:39:56;;;;;;;10.38;3.22;;;18.70;72.20;;;;;;5108041;27;20101;-63
2024/03/13 06:42:24;;;;;;;14.88;2.88;;;18.60;72.30;;;;;;5113476;27;20520;-62
2024/03/13 06:44:50;;;;;;;15.52;2.97;;;18.50;72.70;;;;;;5110315;27;20076;-62
2024/03/13 06:47:17;;;;;;;13.15;3.03;;;18.40;73.20;;;;;;5103668;27;20502;-62
2024/03/13 06:49:46;;;;;;;10.98;2.40;;;18.40;73.30;;;;;;5105470;27;20098;-63
2024/03/13 06:52:13;;;;;;;10.32;3.05;;;18.40;73.20;;;;;;5113554;27;20150;-62
2024/03/13 06:54:40;;;;;;;10.50;2.92;;;18.40;73.10;;;;;;5109547;27;20071;-63
2024/03/13 06:57:09;;;;;;;11.07;3.05;;;18.50;73.10;;;;;;5110869;27;20061;-63
2024/03/13 06:59:36;;;;;;;11.20;2.53;;;18.50;73.30;;;;;;5105180;27;20072;-64
2024/03/13 07:02:04;;;;;;;11.65;2.40;;;18.60;72.90;;;;;;5105269;27;20533;-63
2024/03/13 07:04:30;;;;;;;9.05;2.35;;;18.80;72.70;;;;;;5108693;27;20091;-62
2024/03/13 07:07:00;;;;;;;13.85;2.80;;;18.80;72.20;;;;;;5099470;28;20079;-62
2024/03/13 07:09:27;;;;;;;10.05;3.08;;;18.90;72.10;;;;;;5103551;27;20104;-62
2024/03/13 07:11:54;;;;;;;15.10;2.30;;;18.90;72.30;;;;;;5110774;27;20056;-62
2024/03/13 07:14:21;;;;;;;15.25;2.88;;;18.90;72.50;;;;;;5105954;27;20117;-63
2024/03/13 07:16:48;;;;;;;20.08;3.25;;;18.80;72.40;;;;;;5103827;28;20079;-62
2024/03/13 07:19:14;;;;;;;18.35;3.03;;;18.90;73.40;;;;;;5113291;27;20064;-63
2024/03/13 07:21:41;;;;;;;9.05;2.80;;;18.90;72.80;;;;;;5111436;27;20205;-63
2024/03/13 07:24:07;;;;;;;13.43;3.08;;;18.90;72.20;;;;;;5111077;28;20064;-64
2024/03/13 07:26:34;;;;;;;13.48;3.00;;;18.70;72.60;;;;;;5111851;28;20169;-63
2024/03/13 07:29:06;;;;;;;11.13;2.80;;;18.50;72.70;;;;;;5108774;28;20068;-63
2024/03/13 07:31:33;;;;;;;34.58;18.52;;;18.50;73.00;;;;;;5108570;28;20437;-62
2024/03/13 07:33:59;;;;;;;12.80;5.38;;;18.50;72.80;;;;;;5116732;28;20060;-63
2024/03/13 07:36:25;;;;;;;8.05;2.63;;;18.40;72.50;;;;;;5113092;28;20095;-63
2024/03/13 07:38:53;;;;;;;8.30;2.22;;;18.50;72.70;;;;;;5123859;27;20068;-63
2024/03/13 07:41:20;;;;;;;10.25;2.22;;;18.50;72.60;;;;;;5109495;28;20509;-64
2024/03/13 07:43:48;;;;;;;9.18;2.20;;;18.50;72.60;;;;;;5123686;27;20068;-63
2024/03/13 07:46:15;;;;;;;8.60;1.80;;;18.50;72.60;;;;;;5124689;27;20454;-64
2024/03/13 07:48:42;;;;;;;7.28;2.25;;;18.50;72.60;;;;;;5118615;27;20494;-62
2024/03/13 07:51:09;;;;;;;8.60;2.30;;;18.50;72.70;;;;;;5111382;27;20191;-62
2024/03/13 07:53:37;;;;;;;7.93;1.80;;;18.40;72.90;;;;;;5124803;27;20099;-62
2024/03/13 07:56:05;;;;;;;6.60;2.35;;;18.40;73.10;;;;;;5128783;27;20078;-62
2024/03/13 07:58:32;;;;;;;8.30;2.17;;;18.40;73.20;;;;;;5124530;27;20060;-65
2024/03/13 08:01:01;;;;;;;10.00;2.40;;;18.30;73.40;;;;;;5123537;27;20076;-64
2024/03/13 08:03:28;;;;;;;10.25;2.50;;;18.20;73.60;;;;;;5128156;27;20098;-62
2024/03/13 08:05:55;;;;;;;7.60;2.22;;;18.30;73.90;;;;;;5126040;27;20060;-63
2024/03/13 08:08:21;;;;;;;8.15;2.55;;;18.30;74.00;;;;;;5115625;27;20177;-63
2024/03/13 08:10:49;;;;;;;6.13;2.40;;;18.30;74.10;;;;;;5132907;27;20092;-63
2024/03/13 08:13:16;;;;;;;10.50;2.42;;;18.30;74.10;;;;;;5119067;27;20068;-63
2024/03/13 08:15:43;;;;;;;11.63;2.47;;;18.30;74.00;;;;;;5113399;27;20097;-63
2024/03/13 08:18:14;;;;;;;13.48;2.75;;;18.30;74.20;;;;;;5124459;27;20072;-62
2024/03/13 08:20:41;;;;;;;9.70;2.15;;;18.30;74.20;;;;;;5122298;27;20498;-63
2024/03/13 08:23:08;;;;;;;9.02;2.53;;;18.40;73.90;;;;;;5123849;27;20530;-62
2024/03/13 08:25:35;;;;;;;8.25;1.90;;;18.40;73.80;;;;;;5124043;27;20103;-62
2024/03/13 08:28:01;;;;;;;6.63;1.85;;;18.40;74.10;;;;;;5121902;27;20205;-62
2024/03/13 08:30:29;;;;;;;7.40;2.00;;;18.40;74.20;;;;;;5107373;27;20108;-62
2024/03/13 08:32:58;;;;;;;17.48;2.80;;;18.40;74.40;;;;;;5122965;27;20530;-61
2024/03/13 08:35:28;;;;;;;14.60;2.42;;;18.30;74.70;;;;;;5122779;27;20067;-62
2024/03/13 08:38:01;;;;;;;15.57;2.80;;;18.30;75.30;;;;;;5110734;27;20066;-62
2024/03/13 08:40:32;;;;;;;11.57;2.35;;;18.10;76.10;;;;;;5117094;27;20616;-63
2024/03/13 08:42:59;;;;;;;13.38;2.72;;;17.90;77.30;;;;;;5128398;27;20125;-62
2024/03/13 08:45:26;;;;;;;12.13;2.72;;;17.80;78.00;;;;;;5115452;27;20072;-64
2024/03/13 08:47:55;;;;;;;10.88;2.30;;;17.60;78.40;;;;;;5111695;27;20064;-62
2024/03/13 08:50:22;;;;;;;8.85;2.60;;;17.60;79.30;;;;;;5115673;27;20546;-62
2024/03/13 08:52:48;;;;;;;10.07;2.50;;;17.50;79.40;;;;;;5121162;27;20178;-62
2024/03/13 08:55:17;;;;;;;11.38;2.30;;;17.50;79.60;;;;;;5121834;27;20071;-63
2024/03/13 08:57:45;;;;;;;8.65;2.13;;;17.40;79.30;;;;;;5124017;27;20072;-61
2024/03/13 09:00:12;;;;;;;7.60;2.35;;;17.40;79.50;;;;;;5119454;27;20086;-62
2024/03/13 09:02:38;;;;;;;10.40;2.03;;;17.40;79.20;;;;;;5112571;27;20088;-62
2024/03/13 09:05:07;;;;;;;4.55;1.80;;;17.40;79.30;;;;;;5122851;27;20146;-63
2024/03/13 09:07:33;;;;;;;5.28;2.20;;;17.50;79.20;;;;;;5106182;27;20545;-62
2024/03/13 09:10:00;;;;;;;8.32;1.90;;;17.60;78.90;;;;;;5110882;27;20121;-62
2024/03/13 09:12:27;;;;;;;5.10;2.03;;;17.60;78.60;;;;;;5128501;27;20082;-62
2024/03/13 09:14:54;;;;;;;5.60;1.67;;;17.60;78.70;;;;;;5112336;27;20072;-63
2024/03/13 09:17:20;;;;;;;8.50;2.50;;;17.60;78.60;;;;;;5115528;27;20654;-62
2024/03/13 09:19:49;;;;;;;7.15;1.80;;;17.50;78.90;;;;;;5117228;27;20151;-63
2024/03/13 09:22:18;;;;;;;6.60;1.75;;;17.60;79.00;;;;;;5119965;27;20068;-63
2024/03/13 09:24:44;;;;;;;7.30;1.98;;;17.50;79.30;;;;;;5123873;27;20194;-64
2024/03/13 09:27:11;;;;;;;5.20;2.13;;;17.40;79.50;;;;;;5109284;27;20136;-64
2024/03/13 09:29:37;;;;;;;4.63;2.00;;;17.30;79.40;;;;;;5122904;27;20095;-63
2024/03/13 09:32:04;;;;;;;6.32;1.80;;;17.50;79.80;;;;;;5117250;27;20154;-63
2024/03/13 09:34:31;;;;;;;3.95;1.70;;;17.40;79.40;;;;;;5124826;27;20075;-63
2024/03/13 09:37:04;;;;;;;6.00;2.03;;;17.40;79.60;;;;;;5108585;27;20072;-63
2024/03/13 09:39:34;;;;;;;6.22;2.42;;;17.40;79.50;;;;;;5105859;27;20075;-63
2024/03/13 09:42:01;;;;;;;10.43;3.08;;;17.40;79.70;;;;;;5116508;27;20064;-63
2024/03/13 09:44:29;;;;;;;6.47;3.10;;;17.20;80.30;;;;;;5123231;27;20116;-63
2024/03/13 09:46:57;;;;;;;10.05;3.63;;;17.30;80.80;;;;;;5115897;27;20124;-63
2024/03/13 09:49:26;;;;;;;13.55;3.83;;;17.20;80.60;;;;;;5120644;27;20562;-62
2024/03/13 09:51:53;;;;;;;10.77;3.05;;;17.20;80.70;;;;;;5110255;27;20084;-61
2024/03/13 09:54:21;;;;;;;11.63;2.53;;;17.10;80.90;;;;;;5110295;27;20514;-61
2024/03/13 09:56:48;;;;;;;5.40;1.90;;;17.10;81.00;;;;;;5122919;27;20068;-63
2024/03/13 09:59:14;;;;;;;4.50;1.65;;;17.20;81.10;;;;;;5117326;27;20159;-63
2024/03/13 10:01:51;;;;;;;2.97;1.38;;;17.20;80.80;;;;;;5113796;27;20064;-62
2024/03/13 10:04:25;;;;;;;8.40;1.98;;;17.30;80.70;;;;;;5117728;27;20068;-62
2024/03/13 10:06:56;;;;;;;6.47;1.90;;;17.30;80.10;;;;;;5119395;27;20155;-66
2024/03/13 10:09:35;;;;;;;3.35;1.45;;;17.30;79.70;;;;;;5118012;27;20100;-62
2024/03/13 10:12:03;;;;;;;4.70;1.55;;;17.30;80.00;;;;;;5117214;27;20072;-62
2024/03/13 10:14:30;;;;;;;3.00;1.40;;;17.20;80.10;;;;;;5128754;27;20072;-63
2024/03/13 10:17:03;;;;;;;6.05;1.58;;;17.20;79.80;;;;;;5119077;27;20205;-62
2024/03/13 10:19:36;;;;;;;10.93;1.70;;;17.20;79.30;;;;;;5122816;27;20116;-63
2024/03/13 10:22:03;;;;;;;6.53;1.67;;;17.20;79.30;;;;;;5120224;27;20167;-64
2024/03/13 10:24:34;;;;;;;4.65;1.52;;;17.20;79.10;;;;;;5111948;27;20103;-62
2024/03/13 10:27:02;;;;;;;4.38;1.15;;;17.20;78.60;;;;;;5115757;27;20460;-62
2024/03/13 10:29:31;;;;;;;3.83;1.48;;;17.30;78.40;;;;;;5106873;27;20099;-65
2024/03/13 10:31:59;;;;;;;3.90;1.60;;;17.30;78.40;;;;;;5111637;27;20143;-63
2024/03/13 10:34:26;;;;;;;5.22;1.40;;;17.30;78.40;;;;;;5115877;27;20082;-63
2024/03/13 10:36:53;;;;;;;3.22;1.70;;;17.30;78.50;;;;;;5118702;27;20067;-63
2024/03/13 10:39:19;;;;;;;7.68;1.90;;;17.30;79.60;;;;;;5110722;27;20086;-64
2024/03/13 10:41:46;;;;;;;7.90;1.42;;;17.30;78.60;;;;;;5108665;28;20099;-63
2024/03/13 10:44:13;;;;;;;8.98;2.13;;;17.20;78.90;;;;;;5114773;27;20075;-63
2024/03/13 10:46:41;;;;;;;5.50;1.40;;;17.20;78.60;;;;;;5109692;27;20091;-63
2024/03/13 10:49:16;;;;;;;5.30;1.77;;;17.20;78.80;;;;;;5117101;27;20087;-63
2024/03/13 10:51:43;;;;;;;5.32;1.40;;;17.10;79.00;;;;;;5113785;27;20509;-62
2024/03/13 10:54:10;;;;;;;5.63;1.70;;;17.10;78.40;;;;;;5120335;27;20660;-63
2024/03/13 10:56:37;;;;;;;5.05;1.40;;;17.10;77.90;;;;;;5120416;27;20107;-62
2024/03/13 10:59:04;;;;;;;4.43;1.50;;;17.20;77.80;;;;;;5115232;27;20101;-62
2024/03/13 11:01:30;;;;;;;3.65;1.17;;;17.20;78.00;;;;;;5120450;27;20093;-63
2024/03/13 11:04:00;;;;;;;6.57;1.83;;;17.20;77.70;;;;;;5114139;27;20927;-64
2024/03/13 11:06:32;;;;;;;2.83;1.27;;;17.10;77.60;;;;;;5116350;27;20470;-63
2024/03/13 11:09:00;;;;;;;5.25;1.45;;;17.00;77.70;;;;;;5113762;27;20064;-63
2024/03/13 11:11:27;;;;;;;5.75;1.85;;;17.00;78.00;;;;;;5118740;27;20067;-63
2024/03/13 11:13:56;;;;;;;3.30;1.50;;;16.90;78.40;;;;;;5116468;27;20104;-64
2024/03/13 11:16:24;;;;;;;5.15;1.63;;;16.80;78.50;;;;;;5120333;27;20068;-63
2024/03/13 11:18:55;;;;;;;4.43;1.50;;;16.80;78.50;;;;;;5115223;27;20562;-63
2024/03/13 11:21:51;;;;;;;3.58;1.40;;;16.80;78.30;;;;;;5110768;27;20072;-64
2024/03/13 11:24:25;;;;;;;4.57;1.48;;;16.90;78.20;;;;;;5114970;27;20064;-66
2024/03/13 11:27:05;;;;;;;4.63;1.38;;;16.90;78.30;;;;;;5111320;28;20090;-63
2024/03/13 11:29:40;;;;;;;8.07;1.40;;;16.90;78.60;;;;;;5116814;28;20187;-63
2024/03/13 11:32:08;;;;;;;2.90;1.15;;;17.00;78.10;;;;;;5114525;28;20124;-64
2024/03/13 11:34:37;;;;;;;4.22;1.42;;;16.90;78.10;;;;;;5122114;27;20076;-63
2024/03/13 11:37:07;;;;;;;5.57;1.52;;;16.80;77.90;;;;;;5104919;28;20438;-63
2024/03/13 11:39:33;;;;;;;6.00;1.63;;;16.70;78.30;;;;;;5123395;27;20079;-63
2024/03/13 11:42:13;;;;;;;5.70;1.95;;;16.70;78.70;;;;;;5119528;28;20106;-63
2024/03/13 11:44:45;;;;;;;9.68;1.95;;;16.80;78.00;;;;;;5125557;28;20413;-63
2024/03/13 11:47:15;;;;;;;4.35;1.83;;;16.70;77.50;;;;;;5122665;27;20103;-64
2024/03/13 11:49:42;;;;;;;8.75;1.55;;;16.60;78.90;;;;;;5118115;27;20099;-63
2024/03/13 11:52:15;;;;;;;9.40;2.20;;;16.50;79.80;;;;;;5120826;28;20179;-63
2024/03/13 11:54:44;;;;;;;4.00;1.52;;;16.50;81.00;;;;;;5110395;28;20107;-63
2024/03/13 11:57:13;;;;;;;10.30;1.90;;;16.40;81.50;;;;;;5120728;27;20065;-62
2024/03/13 11:59:54;;;;;;;10.95;1.95;;;16.50;81.20;;;;;;5122320;28;20369;-63
2024/03/13 12:02:32;;;;;;;5.53;1.88;;;16.40;80.60;;;;;;5117298;28;20554;-63
2024/03/13 12:05:10;;;;;;;5.18;1.55;;;16.40;80.40;;;;;;5111841;28;20067;-64
2024/03/13 12:07:40;;;;;;;5.93;1.40;;;16.30;80.10;;;;;;5119827;28;20073;-63
2024/03/13 12:10:23;;;;;;;3.92;1.60;;;16.30;79.80;;;;;;5113677;28;20124;-63
2024/03/13 12:12:49;;;;;;;6.03;2.00;;;16.30;79.20;;;;;;5116657;28;20436;-63
2024/03/13 12:15:18;;;;;;;5.57;1.83;;;16.40;79.20;;;;;;5117305;28;20191;-62
2024/03/13 12:17:49;;;;;;;2.92;1.40;;;16.40;79.30;;;;;;5122224;27;20096;-62
2024/03/13 12:20:21;;;;;;;5.80;1.80;;;16.20;79.40;;;;;;5111515;28;20159;-62
2024/03/13 12:22:51;;;;;;;10.32;1.83;;;16.10;80.50;;;;;;5099577;28;20079;-62
2024/03/13 12:25:21;;;;;;;8.40;2.03;;;16.00;81.50;;;;;;5114013;28;20178;-62
2024/03/13 12:27:52;;;;;;;8.93;1.90;;;16.10;81.50;;;;;;5110572;28;20099;-62
2024/03/13 12:30:19;;;;;;;12.95;2.05;;;16.10;81.10;;;;;;5113239;27;20158;-63
2024/03/13 12:32:46;;;;;;;7.07;2.25;;;16.10;81.30;;;;;;5112258;27;20079;-62
2024/03/13 12:35:13;;;;;;;11.60;2.17;;;16.10;81.50;;;;;;5121072;27;20084;-62
2024/03/13 12:37:39;;;;;;;11.23;1.85;;;16.00;81.70;;;;;;5125214;27;20120;-62
2024/03/13 12:40:12;;;;;;;9.02;2.30;;;15.90;81.80;;;;;;5122764;27;20079;-62
2024/03/13 12:42:41;;;;;;;7.00;2.28;;;15.90;81.30;;;;;;5123039;27;20063;-63
2024/03/13 12:45:10;;;;;;;13.15;2.30;;;15.90;82.30;;;;;;5120427;27;20068;-62
2024/03/13 12:47:38;;;;;;;9.57;2.28;;;15.90;83.10;;;;;;5121971;27;20072;-62
2024/03/13 12:50:15;;;;;;;12.13;2.42;;;15.90;82.80;;;;;;5113921;27;20135;-63
2024/03/13 12:52:44;;;;;;;7.68;2.30;;;15.90;83.20;;;;;;5116998;27;20080;-63
2024/03/13 12:55:15;;;;;;;7.50;1.88;;;15.90;83.40;;;;;;5119316;27;20436;-63
2024/03/13 12:57:41;;;;;;;13.68;2.28;;;15.80;83.80;;;;;;5117417;27;20070;-62
2024/03/13 13:00:30;;;;;;;10.50;2.40;;;15.70;83.80;;;;;;5120522;27;20151;-62
2024/03/13 13:02:58;;;;;;;17.50;2.95;;;15.70;84.00;;;;;;5107396;27;20127;-62
2024/03/13 13:05:25;;;;;;;13.98;2.83;;;15.70;83.70;;;;;;5116205;27;20095;-62